עמוד ראשי
תמונות לווין תחזית 15-יוםאקליםתחזית ים סופות טרופיות ברק שדות תעופהשאלות נפוצות עלון אודות
מזג אוויר : אירופה אפריקה אמריקה הצפונית אמריקה הדרומית אסיה אוסטרליה-אוקיאניה אחר
שפות איש קשר

סלוניקי, יוון

קו רוחב: 40-31N, קו אורך: 022-58E, גובה: 8 m


METAR: LGTS 011120Z 31008KT 9999 FEW025 16/04 Q1024 NOSIG
TAF: LGTS 010500Z 0106/0206 34018KT 9999 FEW025 BECMG 0112/0114 34010KT

זמן: 13:35 (11:35 UTC)

תצפית מזג אוויר נוכחית

הדו"ח נערך לפני 15 דקות, בשעה 11:20 UTC
רוח 8 קשר מכיוון צפון-מערב
טמפרטורת 16°C
לחות 45%
לחץ 1024 hPa
ראות 10 קילומטר או יותר
מעט עננים בגובה 2500 רגל

שינוי יחידות

תחזית

הדו"ח נערך לפני 6 שעות ו 35 דקות, בשעה 05:00 UTC
תחזית בתוקף מ 01 ב 06 UTC עד 02 ב 06 UTC
רוח 18 קשר מכיוון צפון/צפון-מערב
ראות 10 קילומטר או יותר
מעט עננים בגובה 2500 רגל
יעשה מ
01 ב 12 UTC עד 01 ב 14 UTC
רוח 10 קשר מכיוון צפון/צפון-מערב
המידע באתר זה מותנה של תניית פטור
מזג אוויר : אירופה אפריקה אמריקה הצפונית אמריקה הדרומית אסיה אוסטרליה-אוקיאניה אחר
תמונות לווין תחזית 15-יוםאקליםתחזית ים סופות טרופיות ברק שדות תעופהשאלות נפוצות שפות איש קשר עלון אודות